Time;durP1;ratioP1;P1;durP2;ratioP2;P2;SDS_P1;SDS_P2;PMS_P1;PMS_P2;Temp;Humidity;BMP_temperature;BMP_pressure;BME280_temperature;BME280_humidity;BME280_pressure;Samples;Min_cycle;Max_cycle;Signal;HPM_P1;HPM_P2
2022/05/20 00:00:23;;;;;;;10.85;1.95;;;13.30;92.50;;;;;;5051805;28;20025;-48
2022/05/20 00:02:49;;;;;;;9.30;2.00;;;13.30;92.30;;;;;;5046950;28;20036;-42
2022/05/20 00:05:15;;;;;;;11.75;2.30;;;13.20;92.30;;;;;;5031940;28;20455;-41
2022/05/20 00:07:42;;;;;;;10.50;2.22;;;13.20;92.40;;;;;;5032059;28;20033;-51
2022/05/20 00:10:10;;;;;;;11.40;2.38;;;13.20;92.80;;;;;;5031799;28;20099;-50
2022/05/20 00:12:36;;;;;;;13.70;2.75;;;13.20;92.90;;;;;;5034150;28;20025;-54
2022/05/20 00:15:06;;;;;;;14.70;2.63;;;13.10;92.90;;;;;;5051673;28;20033;-55
2022/05/20 00:17:32;;;;;;;13.30;3.13;;;13.00;92.90;;;;;;5051885;28;20025;-52
2022/05/20 00:19:57;;;;;;;19.15;3.05;;;13.10;92.90;;;;;;5051541;28;20035;-45
2022/05/20 00:22:23;;;;;;;15.60;2.80;;;13.00;93.10;;;;;;5050688;28;20017;-48
2022/05/20 00:27:46;;;;;;;19.58;3.00;;;13.10;93.30;;;;;;5008724;28;20034;-43
2022/05/20 00:30:12;;;;;;;21.40;3.08;;;13.20;93.30;;;;;;5031481;28;20083;-42
2022/05/20 00:32:38;;;;;;;17.23;3.60;;;13.20;93.30;;;;;;5033384;28;20387;-39
2022/05/20 00:35:05;;;;;;;12.82;3.15;;;13.20;93.40;;;;;;5050014;28;20033;-48
2022/05/20 00:37:30;;;;;;;17.67;3.58;;;13.20;93.60;;;;;;5051234;28;20025;-50
2022/05/20 00:39:56;;;;;;;16.42;3.10;;;13.20;93.40;;;;;;5051143;28;20473;-51
2022/05/20 00:42:22;;;;;;;17.50;3.35;;;13.20;93.30;;;;;;5050897;28;20029;-41
2022/05/20 00:44:47;;;;;;;8.73;2.58;;;13.20;93.20;;;;;;5030041;28;20041;-46
2022/05/20 00:47:14;;;;;;;9.70;2.88;;;13.20;93.30;;;;;;5031115;28;20120;-55
2022/05/20 00:49:45;;;;;;;14.02;3.13;;;13.20;93.40;;;;;;5031129;28;20017;-41
2022/05/20 00:52:13;;;;;;;13.43;3.30;;;13.20;93.40;;;;;;5031204;28;20060;-48
2022/05/20 00:55:02;;;;;;;20.05;4.45;;;13.10;93.40;;;;;;5049204;28;20496;-39
2022/05/20 00:57:52;;;;;;;18.60;5.37;;;13.20;93.30;;;;;;5051136;28;20017;-42
2022/05/20 01:00:22;;;;;;;12.45;5.03;;;13.10;93.20;;;;;;5050649;28;20045;-41
2022/05/20 01:02:52;;;;;;;23.63;5.43;;;13.10;93.40;;;;;;5047916;28;20025;-46
2022/05/20 01:05:26;;;;;;;17.90;4.57;;;13.10;93.50;;;;;;5031235;28;20029;-39
2022/05/20 01:07:52;;;;;;;19.02;5.00;;;13.00;93.30;;;;;;5011426;28;20044;-41
2022/05/20 01:10:18;;;;;;;22.48;5.75;;;13.10;93.50;;;;;;5011224;28;20022;-53
2022/05/20 01:12:44;;;;;;;23.48;6.35;;;13.00;93.20;;;;;;5014041;28;20409;-40
2022/05/20 01:15:10;;;;;;;17.90;4.75;;;13.10;93.20;;;;;;5050884;28;20540;-44
2022/05/20 01:17:37;;;;;;;18.73;4.30;;;13.10;93.20;;;;;;5051009;28;20029;-49
2022/05/20 01:20:08;;;;;;;23.52;5.28;;;13.00;93.10;;;;;;5050996;28;20029;-44
2022/05/20 01:22:40;;;;;;;20.90;4.30;;;13.00;93.20;;;;;;5050271;28;20021;-46
2022/05/20 01:25:08;;;;;;;12.73;4.15;;;13.00;93.30;;;;;;5030957;28;20767;-53
2022/05/20 01:27:36;;;;;;;14.05;3.65;;;13.00;93.40;;;;;;5030762;28;20026;-45
2022/05/20 01:30:05;;;;;;;11.35;3.28;;;12.90;93.30;;;;;;5030834;28;20029;-44
2022/05/20 01:32:30;;;;;;;12.23;3.30;;;12.90;93.30;;;;;;5030683;28;20083;-42
2022/05/20 01:34:56;;;;;;;12.65;3.33;;;12.90;93.30;;;;;;5049778;28;20033;-49
2022/05/20 01:37:22;;;;;;;16.10;3.83;;;12.80;93.30;;;;;;5050340;28;20025;-53
2022/05/20 01:39:47;;;;;;;15.27;3.55;;;12.80;93.40;;;;;;5050427;28;20029;-49
2022/05/20 01:42:45;;;;;;;17.08;4.07;;;12.70;93.40;;;;;;5049359;28;20052;-44
2022/05/20 01:45:39;;;;;;;14.68;4.32;;;12.70;93.60;;;;;;5030913;28;20045;-46
2022/05/20 01:48:27;;;;;;;14.20;4.55;;;12.70;93.60;;;;;;5033939;28;20192;-48
2022/05/20 01:50:55;;;;;;;15.73;4.68;;;12.60;93.70;;;;;;5034419;28;20029;-51
2022/05/20 01:53:26;;;;;;;13.52;4.30;;;12.60;93.60;;;;;;5038851;28;20040;-47
2022/05/20 01:56:14;;;;;;;15.95;4.43;;;12.60;93.60;;;;;;5054563;28;20029;-50
2022/05/20 01:58:56;;;;;;;16.80;4.28;;;12.50;93.80;;;;;;5054172;28;20021;-40
2022/05/20 02:01:31;;;;;;;10.02;4.20;;;12.50;93.70;;;;;;5054354;28;20028;-51
2022/05/20 02:04:02;;;;;;;16.27;4.90;;;12.50;93.70;;;;;;5043248;28;20029;-48
2022/05/20 02:06:33;;;;;;;12.95;4.00;;;12.50;93.70;;;;;;5022447;28;20044;-39
2022/05/20 02:09:05;;;;;;;15.02;4.00;;;12.50;93.60;;;;;;5046996;28;20047;-51
2022/05/20 02:11:47;;;;;;;17.85;5.47;;;12.40;93.40;;;;;;5053522;28;20025;-43
2022/05/20 02:14:13;;;;;;;13.40;5.05;;;12.40;93.70;;;;;;5041189;28;20055;-46
2022/05/20 02:16:44;;;;;;;11.93;4.13;;;12.40;94.00;;;;;;5034011;28;20382;-50
2022/05/20 02:19:17;;;;;;;16.80;5.35;;;12.40;94.10;;;;;;5033956;28;20030;-44
2022/05/20 02:21:48;;;;;;;18.75;5.20;;;12.40;94.10;;;;;;5033906;28;20093;-42
2022/05/20 02:24:19;;;;;;;14.45;4.97;;;12.40;94.20;;;;;;5046157;28;20035;-41
2022/05/20 02:26:51;;;;;;;14.70;4.35;;;12.30;94.30;;;;;;5053561;28;20017;-49
2022/05/20 02:29:20;;;;;;;14.32;4.45;;;12.40;94.50;;;;;;5033908;28;20117;-46
2022/05/20 02:31:54;;;;;;;12.52;3.83;;;12.40;94.50;;;;;;5033784;28;20029;-51
2022/05/20 02:34:20;;;;;;;16.85;4.13;;;12.50;94.50;;;;;;5033492;28;20056;-47
2022/05/20 02:36:45;;;;;;;13.18;3.60;;;12.50;94.60;;;;;;5033533;28;20057;-53
2022/05/20 02:39:17;;;;;;;16.58;3.53;;;12.50;94.70;;;;;;5034479;28;20068;-54
2022/05/20 02:41:49;;;;;;;10.80;3.15;;;12.50;94.40;;;;;;5033468;28;20482;-52
2022/05/20 02:44:15;;;;;;;16.88;3.97;;;12.60;94.40;;;;;;5033375;28;20044;-53
2022/05/20 02:46:46;;;;;;;10.43;3.30;;;12.60;94.40;;;;;;5033163;28;20045;-50
2022/05/20 02:49:11;;;;;;;12.02;3.35;;;12.50;94.30;;;;;;5046625;28;20060;-48
2022/05/20 02:51:37;;;;;;;20.15;4.35;;;12.60;94.50;;;;;;5053053;28;20489;-41
2022/05/20 02:54:04;;;;;;;12.20;3.13;;;12.60;94.50;;;;;;5053163;28;20079;-42
2022/05/20 02:56:30;;;;;;;13.70;3.65;;;12.60;94.50;;;;;;5046905;28;20545;-49
2022/05/20 03:04:25;;;;;;;18.80;5.43;;;12.50;94.30;;;;;;5052974;28;20090;-48
2022/05/20 03:06:51;;;;;;;17.33;6.15;;;12.40;94.20;;;;;;5052998;28;20020;-51
2022/05/20 03:09:21;;;;;;;18.45;6.53;;;12.40;94.40;;;;;;5038234;28;20040;-41
2022/05/20 03:11:47;;;;;;;25.52;7.57;;;12.40;94.50;;;;;;5032573;28;20490;-51
2022/05/20 03:14:16;;;;;;;20.52;6.97;;;12.30;94.60;;;;;;5033124;28;20036;-42
2022/05/20 03:16:43;;;;;;;21.88;6.80;;;12.30;94.60;;;;;;5032904;28;20493;-49
2022/05/20 03:19:09;;;;;;;20.70;6.43;;;12.30;94.60;;;;;;5045508;28;20449;-55
2022/05/20 03:21:36;;;;;;;12.50;4.57;;;12.40;94.70;;;;;;5052794;28;20028;-45
2022/05/20 03:24:04;;;;;;;19.60;4.50;;;12.30;94.80;;;;;;5052667;28;20044;-44
2022/05/20 03:26:30;;;;;;;12.38;4.25;;;12.40;94.70;;;;;;5052606;28;20020;-49
2022/05/20 03:28:59;;;;;;;16.70;4.43;;;12.40;94.80;;;;;;5050514;28;20064;-54
2022/05/20 03:31:25;;;;;;;18.92;4.25;;;12.40;94.70;;;;;;5052117;28;20104;-39
2022/05/20 03:33:51;;;;;;;12.25;4.20;;;12.40;95.00;;;;;;5052482;28;20063;-55
2022/05/20 03:36:17;;;;;;;14.10;4.20;;;12.40;94.90;;;;;;5041289;28;20478;-46
2022/05/20 03:38:43;;;;;;;12.05;3.90;;;12.40;94.70;;;;;;5032344;28;20036;-53
2022/05/20 03:41:10;;;;;;;15.00;4.13;;;12.30;94.70;;;;;;5032410;28;20548;-57
2022/05/20 03:43:37;;;;;;;14.57;3.75;;;12.30;94.60;;;;;;5032323;28;20041;-46
2022/05/20 03:46:03;;;;;;;15.07;4.03;;;12.30;94.90;;;;;;5043591;28;20060;-45
2022/05/20 03:48:30;;;;;;;10.35;3.78;;;12.30;95.20;;;;;;5051811;28;20041;-51
2022/05/20 03:50:56;;;;;;;12.38;4.15;;;12.30;95.40;;;;;;5051970;28;20021;-58
2022/05/20 03:53:21;;;;;;;14.45;4.22;;;12.40;95.40;;;;;;5052055;28;20116;-39
2022/05/20 03:55:47;;;;;;;14.77;4.20;;;12.40;95.40;;;;;;5041251;28;20136;-41
2022/05/20 03:58:13;;;;;;;14.60;4.30;;;12.50;95.30;;;;;;5032313;28;20045;-39
2022/05/20 04:03:25;;;;;;;13.82;4.22;;;12.50;95.30;;;;;;5031770;28;20138;-39
2022/05/20 04:05:51;;;;;;;13.10;4.18;;;12.40;94.80;;;;;;5042149;28;20072;-41
2022/05/20 04:08:17;;;;;;;13.32;3.70;;;12.40;94.80;;;;;;5051744;28;20029;-44
2022/05/20 04:10:42;;;;;;;11.55;3.30;;;12.40;94.80;;;;;;5051624;28;20071;-54
2022/05/20 04:13:08;;;;;;;12.13;3.65;;;12.40;95.20;;;;;;5051619;28;20021;-52
2022/05/20 04:15:34;;;;;;;11.55;3.88;;;12.40;95.30;;;;;;5043265;28;20082;-46
2022/05/20 04:18:00;;;;;;;13.25;3.88;;;12.30;95.00;;;;;;5031640;28;20101;-43
2022/05/20 04:20:26;;;;;;;14.25;3.92;;;12.30;95.30;;;;;;5031698;28;20045;-47
2022/05/20 04:22:52;;;;;;;15.75;4.47;;;12.30;95.50;;;;;;5031579;28;20130;-42
2022/05/20 04:25:17;;;;;;;13.35;4.20;;;12.20;95.20;;;;;;5037184;28;20032;-46
2022/05/20 04:27:43;;;;;;;13.65;4.05;;;12.20;95.60;;;;;;5051120;28;20076;-48
2022/05/20 04:30:09;;;;;;;15.32;3.70;;;12.30;95.50;;;;;;5051396;28;20385;-43
2022/05/20 04:32:35;;;;;;;9.95;3.97;;;12.30;95.90;;;;;;5051476;28;20021;-47
2022/05/20 04:35:01;;;;;;;15.07;4.30;;;12.30;95.70;;;;;;5047991;28;20024;-46
2022/05/20 04:37:27;;;;;;;11.80;3.40;;;12.30;95.90;;;;;;5031311;28;20442;-39
2022/05/20 04:39:53;;;;;;;11.73;3.60;;;12.40;95.70;;;;;;5031332;28;20470;-53
2022/05/20 04:47:48;;;;;;;12.95;4.22;;;12.50;95.40;;;;;;5050814;28;20048;-53
2022/05/20 04:50:14;;;;;;;17.65;6.57;;;12.50;95.50;;;;;;5051067;28;20064;-51
2022/05/20 04:52:40;;;;;;;20.00;6.60;;;12.50;95.30;;;;;;5050982;28;20111;-52
2022/05/20 04:55:07;;;;;;;19.17;7.28;;;12.50;95.20;;;;;;5047490;28;20096;-46
2022/05/20 04:57:37;;;;;;;20.15;6.07;;;12.60;95.20;;;;;;5037250;28;20035;-51
2022/05/20 05:00:18;;;;;;;13.68;5.50;;;12.60;95.40;;;;;;5051076;28;20096;-52
2022/05/20 05:02:45;;;;;;;17.52;5.63;;;12.70;95.20;;;;;;5050993;28;20033;-52
2022/05/20 05:05:14;;;;;;;15.85;5.40;;;12.80;95.30;;;;;;5047221;28;20025;-46
2022/05/20 05:07:43;;;;;;;15.18;5.38;;;12.90;95.60;;;;;;5030993;28;20565;-51
2022/05/20 05:10:10;;;;;;;13.45;4.38;;;13.00;94.80;;;;;;5031167;28;20083;-50
2022/05/20 05:12:36;;;;;;;13.82;5.20;;;13.00;94.90;;;;;;5031042;28;20088;-50
2022/05/20 05:15:02;;;;;;;13.98;5.20;;;13.00;94.90;;;;;;5032738;28;20779;-48
2022/05/20 05:20:18;;;;;;;14.07;4.45;;;13.10;94.80;;;;;;5051116;28;20083;-46
2022/05/20 05:22:44;;;;;;;17.02;4.75;;;13.10;94.70;;;;;;5053757;28;20389;-44
2022/05/20 05:25:13;;;;;;;14.30;4.78;;;13.00;95.20;;;;;;5050322;28;20406;-50
2022/05/20 05:27:39;;;;;;;12.90;4.80;;;13.00;95.00;;;;;;5034864;28;20029;-48
2022/05/20 05:30:06;;;;;;;12.57;4.03;;;13.00;95.20;;;;;;5034869;28;20425;-46
2022/05/20 05:32:33;;;;;;;11.52;4.03;;;12.90;95.10;;;;;;5034912;28;20048;-48
2022/05/20 05:34:59;;;;;;;12.95;3.92;;;12.90;95.30;;;;;;5035626;28;20108;-47
2022/05/20 05:37:25;;;;;;;15.93;4.75;;;12.80;95.40;;;;;;5054349;28;20441;-48
2022/05/20 05:39:51;;;;;;;9.90;4.05;;;12.80;95.30;;;;;;5054537;28;20017;-51
2022/05/20 05:42:17;;;;;;;17.73;4.75;;;12.90;95.50;;;;;;5054580;28;20079;-50
2022/05/20 05:44:42;;;;;;;16.95;5.28;;;12.90;95.60;;;;;;5054418;28;20045;-53
2022/05/20 05:47:08;;;;;;;14.90;4.72;;;12.90;95.30;;;;;;5035307;28;20068;-49
2022/05/20 05:49:34;;;;;;;16.85;4.82;;;12.90;95.20;;;;;;5034406;28;20080;-43
2022/05/20 05:51:59;;;;;;;15.73;5.93;;;12.90;95.20;;;;;;5034449;28;20036;-47
2022/05/20 05:54:25;;;;;;;16.55;5.28;;;12.90;95.60;;;;;;5034374;28;20053;-49
2022/05/20 05:56:50;;;;;;;16.23;5.28;;;12.90;95.60;;;;;;5050502;28;20017;-40
2022/05/20 05:59:16;;;;;;;17.63;5.78;;;13.00;95.60;;;;;;5054147;28;20485;-48
2022/05/20 06:01:42;;;;;;;19.08;6.97;;;13.10;95.90;;;;;;5054287;28;20020;-54
2022/05/20 06:04:07;;;;;;;15.60;5.68;;;13.10;95.60;;;;;;5052748;28;20405;-39
2022/05/20 06:06:34;;;;;;;21.08;6.70;;;13.30;95.50;;;;;;5039734;28;20029;-46
2022/05/20 06:08:59;;;;;;;17.00;6.28;;;13.40;95.40;;;;;;5033735;28;20531;-47
2022/05/20 06:11:25;;;;;;;17.85;5.82;;;13.50;95.30;;;;;;5034102;28;20024;-43
2022/05/20 06:13:51;;;;;;;17.35;6.05;;;13.70;94.90;;;;;;5034282;28;20036;-46
2022/05/20 06:16:21;;;;;;;18.63;6.45;;;14.00;94.90;;;;;;5036153;28;20030;-41
2022/05/20 06:18:48;;;;;;;15.57;6.50;;;14.20;94.40;;;;;;5025388;28;20061;-42
2022/05/20 06:21:13;;;;;;;16.83;5.97;;;14.40;94.30;;;;;;5019145;28;20080;-42
2022/05/20 06:23:39;;;;;;;17.42;5.85;;;14.50;93.00;;;;;;5023953;28;20021;-48
2022/05/20 06:26:05;;;;;;;14.50;4.90;;;14.60;92.60;;;;;;5042761;28;20083;-51
2022/05/20 06:28:30;;;;;;;16.92;5.60;;;14.60;92.80;;;;;;5035424;28;20026;-42
2022/05/20 06:30:57;;;;;;;16.83;4.93;;;14.30;91.50;;;;;;5044716;28;20033;-44
2022/05/20 06:33:24;;;;;;;9.95;4.53;;;14.10;92.30;;;;;;5032288;28;20041;-42
2022/05/20 06:41:18;;;;;;;17.17;5.63;;;14.00;92.80;;;;;;5029404;28;20052;-47
2022/05/20 06:43:44;;;;;;;14.90;5.75;;;14.00;92.70;;;;;;5026803;28;20397;-44
2022/05/20 06:46:10;;;;;;;14.73;4.93;;;14.00;93.50;;;;;;5035033;28;20051;-43
2022/05/20 06:48:48;;;;;;;15.20;4.38;;;14.00;94.10;;;;;;5032862;28;20037;-44
2022/05/20 06:51:17;;;;;;;16.73;4.72;;;14.00;93.50;;;;;;5024128;28;20018;-47
2022/05/20 06:53:44;;;;;;;16.38;4.57;;;14.00;93.60;;;;;;5026994;28;20026;-40
2022/05/20 06:56:11;;;;;;;12.50;4.00;;;14.00;93.60;;;;;;5042214;28;20021;-47
2022/05/20 06:58:36;;;;;;;15.45;4.13;;;14.00;94.10;;;;;;5027513;28;20490;-51
2022/05/20 07:01:03;;;;;;;16.15;4.53;;;14.00;94.40;;;;;;5030432;28;20034;-49
2022/05/20 07:03:30;;;;;;;15.43;4.15;;;14.00;94.60;;;;;;5021617;28;20034;-55
2022/05/20 07:05:55;;;;;;;15.32;3.78;;;14.00;94.50;;;;;;5047386;28;20026;-40
2022/05/20 07:08:22;;;;;;;15.00;3.72;;;14.00;94.50;;;;;;5032225;28;20021;-39
2022/05/20 07:10:47;;;;;;;13.63;3.90;;;14.00;94.40;;;;;;5025330;28;20025;-46
2022/05/20 07:13:13;;;;;;;12.88;4.10;;;14.00;94.60;;;;;;5025315;28;20401;-42
2022/05/20 07:15:39;;;;;;;11.20;3.70;;;14.00;94.50;;;;;;5032041;28;20109;-50
2022/05/20 07:18:05;;;;;;;18.48;4.43;;;14.00;94.40;;;;;;5052699;28;20025;-40
2022/05/20 07:20:30;;;;;;;14.20;4.40;;;14.00;94.80;;;;;;5052597;28;20033;-51
2022/05/20 07:22:56;;;;;;;13.82;3.88;;;14.00;94.50;;;;;;5040627;28;20018;-40
2022/05/20 07:25:22;;;;;;;14.82;3.58;;;14.00;94.20;;;;;;5026680;28;20053;-42
2022/05/20 07:27:47;;;;;;;15.88;3.55;;;14.00;94.50;;;;;;5024860;28;20839;-43
2022/05/20 07:30:15;;;;;;;11.35;3.33;;;14.10;95.00;;;;;;5011574;28;20041;-53
2022/05/20 07:32:40;;;;;;;11.13;3.83;;;14.10;95.00;;;;;;5017004;28;20033;-44
2022/05/20 07:35:09;;;;;;;12.68;3.83;;;14.10;94.80;;;;;;5024449;28;20038;-49
2022/05/20 07:37:35;;;;;;;12.88;4.53;;;14.20;95.10;;;;;;5013769;28;20053;-47
2022/05/20 07:40:01;;;;;;;15.15;4.97;;;14.20;94.80;;;;;;5026429;28;20030;-47
2022/05/20 07:42:27;;;;;;;16.30;4.90;;;14.30;94.50;;;;;;5018442;28;20026;-43
2022/05/20 07:44:53;;;;;;;13.55;5.43;;;14.30;94.80;;;;;;5011136;28;20042;-42
2022/05/20 07:47:20;;;;;;;11.32;4.82;;;14.30;94.90;;;;;;5018939;28;20132;-48
2022/05/20 07:49:46;;;;;;;13.63;5.22;;;14.20;94.90;;;;;;5012118;28;20033;-49
2022/05/20 07:52:13;;;;;;;19.35;5.47;;;14.20;95.10;;;;;;5012319;28;20026;-46
2022/05/20 07:54:44;;;;;;;17.73;5.88;;;14.30;95.30;;;;;;5012618;28;20025;-43
2022/05/20 07:57:14;;;;;;;13.32;5.65;;;14.20;95.00;;;;;;5031813;28;20030;-53
2022/05/20 07:59:52;;;;;;;15.90;5.57;;;14.20;95.40;;;;;;5017745;28;20068;-49
2022/05/20 08:02:22;;;;;;;15.65;5.32;;;14.20;95.10;;;;;;5014086;28;20129;-49
2022/05/20 08:05:01;;;;;;;17.25;5.28;;;14.10;95.00;;;;;;5021969;28;20052;-39
2022/05/20 08:07:34;;;;;;;15.07;5.40;;;14.10;94.90;;;;;;5016477;28;20036;-39
2022/05/20 08:10:03;;;;;;;16.08;5.75;;;14.10;95.10;;;;;;5025568;28;20029;-46
2022/05/20 08:12:28;;;;;;;13.17;5.67;;;14.10;95.40;;;;;;5028911;28;20030;-45
2022/05/20 08:14:54;;;;;;;17.27;5.63;;;14.00;95.50;;;;;;5025515;28;20032;-45
2022/05/20 08:17:24;;;;;;;11.27;3.53;;;13.90;95.40;;;;;;5025816;28;20042;-40
2022/05/20 08:19:51;;;;;;;9.23;3.17;;;13.80;94.00;;;;;;5028907;28;20042;-43
2022/05/20 08:22:22;;;;;;;15.13;4.30;;;13.70;92.70;;;;;;5025620;28;20514;-43
2022/05/20 08:24:52;;;;;;;13.48;4.68;;;13.60;93.60;;;;;;5030022;28;20030;-44
2022/05/20 08:27:22;;;;;;;14.73;5.40;;;13.50;94.10;;;;;;5030425;28;20545;-44
2022/05/20 08:29:49;;;;;;;19.80;8.15;;;13.40;93.90;;;;;;5028123;28;20033;-39
2022/05/20 08:32:15;;;;;;;29.23;13.32;;;13.30;93.70;;;;;;5031503;28;20021;-49
2022/05/20 08:34:43;;;;;;;36.33;16.27;;;13.20;94.00;;;;;;5030500;28;20478;-39
2022/05/20 08:37:09;;;;;;;34.20;13.48;;;13.10;94.00;;;;;;5029380;28;20030;-46
2022/05/20 08:39:35;;;;;;;16.17;5.97;;;13.10;93.60;;;;;;5021844;28;20033;-50
2022/05/20 08:42:01;;;;;;;11.45;3.80;;;12.90;92.90;;;;;;5017864;28;20432;-48
2022/05/20 08:44:27;;;;;;;7.05;2.72;;;12.80;92.90;;;;;;5029227;28;20042;-46
2022/05/20 08:47:26;;;;;;;10.25;2.30;;;12.80;93.70;;;;;;5021176;28;20117;-51
2022/05/20 08:49:58;;;;;;;9.18;2.35;;;12.70;94.50;;;;;;5015949;28;20021;-46
2022/05/20 08:52:25;;;;;;;10.70;2.55;;;12.50;93.80;;;;;;5020237;28;20049;-45
2022/05/20 08:54:50;;;;;;;7.38;1.90;;;12.50;94.20;;;;;;5019035;28;20061;-40
2022/05/20 08:57:27;;;;;;;5.88;1.52;;;12.50;94.10;;;;;;5008803;28;20509;-49
2022/05/20 08:59:54;;;;;;;3.90;1.20;;;12.30;93.90;;;;;;5008990;28;20026;-46
2022/05/20 09:02:20;;;;;;;5.90;1.42;;;12.20;93.80;;;;;;5012430;28;20444;-40
2022/05/20 09:04:47;;;;;;;4.78;1.08;;;12.10;94.10;;;;;;5028539;28;20043;-44
2022/05/20 09:07:15;;;;;;;2.80;0.90;;;12.00;92.80;;;;;;5030150;28;20025;-40
2022/05/20 09:09:52;;;;;;;7.25;1.35;;;11.90;93.60;;;;;;5029827;28;20076;-40
2022/05/20 09:12:36;;;;;;;5.72;1.10;;;11.90;94.20;;;;;;5023302;28;20017;-47
2022/05/20 09:18:02;;;;;;;5.30;1.60;;;11.90;95.20;;;;;;5025739;28;20032;-52
2022/05/20 09:20:29;;;;;;;4.63;1.77;;;11.90;95.00;;;;;;5021034;28;20443;-44
2022/05/20 09:23:06;;;;;;;4.50;1.20;;;11.90;95.10;;;;;;5022594;28;20025;-49
2022/05/20 09:25:34;;;;;;;6.00;1.40;;;11.90;94.60;;;;;;5048623;28;20040;-42
2022/05/20 09:28:27;;;;;;;4.68;1.20;;;11.90;94.40;;;;;;5049917;28;20032;-39
2022/05/20 09:31:03;;;;;;;3.78;0.82;;;11.80;93.90;;;;;;5044174;28;20029;-44
2022/05/20 09:33:31;;;;;;;5.03;1.33;;;11.80;94.20;;;;;;5025713;28;20025;-46
2022/05/20 09:35:59;;;;;;;2.53;1.08;;;11.80;94.80;;;;;;5033849;28;20045;-43
2022/05/20 09:38:29;;;;;;;3.97;1.02;;;11.70;94.80;;;;;;5022021;28;20034;-46
2022/05/20 09:40:55;;;;;;;4.93;1.30;;;11.80;94.80;;;;;;5029236;28;20044;-46
2022/05/20 09:43:35;;;;;;;4.72;1.10;;;11.80;94.20;;;;;;5021084;28;20033;-41
2022/05/20 09:46:03;;;;;;;5.10;1.42;;;11.80;95.20;;;;;;5023163;28;20030;-51
2022/05/20 09:49:06;;;;;;;7.03;2.58;;;11.80;94.90;;;;;;5019573;28;20026;-44
2022/05/20 09:51:49;;;;;;;4.47;1.83;;;11.80;95.00;;;;;;5007238;28;20363;-51
2022/05/20 09:54:34;;;;;;;5.95;2.47;;;11.80;94.60;;;;;;5033240;28;20037;-40
2022/05/20 09:57:10;;;;;;;6.35;2.33;;;11.80;95.00;;;;;;5048186;28;20082;-40
2022/05/20 09:59:41;;;;;;;6.50;2.28;;;11.80;95.20;;;;;;5029662;28;20021;-40
2022/05/20 10:02:34;;;;;;;6.65;2.35;;;11.60;95.00;;;;;;5026896;28;20033;-46
2022/05/20 10:05:21;;;;;;;7.03;2.42;;;11.60;94.90;;;;;;5029606;28;20033;-47
2022/05/20 10:08:17;;;;;;;5.68;2.70;;;11.60;95.30;;;;;;5014075;28;20030;-44
2022/05/20 10:10:43;;;;;;;7.75;2.40;;;11.70;95.70;;;;;;5028790;28;20056;-45
2022/05/20 10:13:53;;;;;;;6.28;2.28;;;11.60;94.90;;;;;;5025176;28;20033;-51
2022/05/20 10:16:37;;;;;;;4.63;1.52;;;11.60;95.70;;;;;;5028935;28;20044;-39
2022/05/20 10:19:28;;;;;;;4.90;1.42;;;11.60;95.60;;;;;;5030099;28;20021;-46
2022/05/20 10:22:05;;;;;;;5.60;1.80;;;11.60;95.10;;;;;;5030022;28;20033;-48
2022/05/20 10:24:57;;;;;;;5.38;1.98;;;11.70;96.00;;;;;;5021519;28;20064;-47
2022/05/20 10:27:26;;;;;;;3.75;1.45;;;11.80;96.60;;;;;;5025254;28;20030;-46
2022/05/20 10:32:58;;;;;;;10.10;2.40;;;11.80;94.80;;;;;;5021024;28;20110;-49
2022/05/20 10:35:29;;;;;;;5.38;1.70;;;11.80;95.70;;;;;;5028775;28;20022;-52
2022/05/20 10:38:03;;;;;;;6.28;1.60;;;11.80;95.80;;;;;;5028656;28;20021;-42
2022/05/20 10:41:00;;;;;;;4.47;1.55;;;11.80;95.20;;;;;;5032324;28;20076;-49
2022/05/20 10:49:29;;;;;;;5.70;2.10;;;11.90;94.90;;;;;;5025423;28;20040;-43
2022/05/20 10:52:12;;;;;;;6.28;2.67;;;11.90;95.50;;;;;;5032421;28;20025;-46
2022/05/20 10:55:03;;;;;;;4.72;2.10;;;11.90;95.60;;;;;;5033598;28;20395;-50
2022/05/20 10:57:35;;;;;;;6.22;1.88;;;12.00;96.10;;;;;;5052226;28;20063;-39
2022/05/20 11:00:17;;;;;;;7.28;1.88;;;12.10;96.20;;;;;;5046835;28;20026;-39
2022/05/20 11:03:23;;;;;;;4.25;1.60;;;12.20;96.30;;;;;;5020213;28;20080;-53
2022/05/20 11:06:20;;;;;;;4.53;1.50;;;12.50;96.20;;;;;;5028858;28;20726;-48
2022/05/20 11:08:52;;;;;;;4.57;1.60;;;12.60;96.10;;;;;;5032107;28;20040;-52
2022/05/20 11:11:39;;;;;;;5.35;1.60;;;12.80;95.50;;;;;;5041375;28;20078;-47
2022/05/20 11:14:32;;;;;;;8.50;2.13;;;12.80;95.20;;;;;;5051943;28;20052;-46
2022/05/20 11:17:34;;;;;;;5.50;1.50;;;12.90;94.80;;;;;;5049852;28;20560;-47
2022/05/20 11:20:06;;;;;;;6.65;2.10;;;12.90;94.70;;;;;;5014200;28;20036;-53
2022/05/20 11:22:43;;;;;;;5.50;1.92;;;13.00;95.00;;;;;;5032248;28;20022;-44
2022/05/20 11:25:28;;;;;;;7.00;2.83;;;13.00;95.00;;;;;;5026175;28;20224;-44
2022/05/20 11:28:12;;;;;;;7.72;3.92;;;13.10;94.90;;;;;;5017640;28;20565;-54
2022/05/20 11:31:08;;;;;;;7.93;3.90;;;13.00;94.00;;;;;;5023019;28;20150;-54
2022/05/20 11:33:49;;;;;;;6.90;2.40;;;13.10;94.50;;;;;;5028701;28;20101;-46
2022/05/20 11:36:36;;;;;;;5.78;2.00;;;13.00;93.90;;;;;;5036698;28;20260;-49
2022/05/20 11:39:27;;;;;;;6.93;3.38;;;12.90;94.20;;;;;;5019560;28;20133;-48
2022/05/20 11:42:14;;;;;;;10.93;4.70;;;13.00;94.50;;;;;;5044558;28;20017;-40
2022/05/20 11:45:10;;;;;;;10.77;4.72;;;12.90;94.80;;;;;;5031288;28;20111;-47
2022/05/20 11:48:20;;;;;;;6.97;2.90;;;13.00;95.30;;;;;;5050769;28;20116;-42
2022/05/20 11:50:56;;;;;;;6.68;2.78;;;13.00;94.80;;;;;;5031252;28;20129;-46
2022/05/20 11:53:43;;;;;;;5.45;2.70;;;13.10;94.80;;;;;;5031337;28;20037;-43
2022/05/20 11:56:21;;;;;;;5.97;3.05;;;13.10;94.80;;;;;;5029223;28;20078;-47
2022/05/20 11:59:16;;;;;;;5.35;2.75;;;13.20;95.10;;;;;;5048468;28;20029;-45
2022/05/20 12:01:45;;;;;;;5.80;2.08;;;13.40;95.50;;;;;;5037084;28;20026;-44
2022/05/20 12:04:12;;;;;;;6.75;2.47;;;13.50;94.80;;;;;;5027182;28;20045;-43
2022/05/20 12:06:52;;;;;;;4.88;2.00;;;13.60;95.30;;;;;;5023570;28;20029;-46
2022/05/20 12:09:32;;;;;;;4.90;1.98;;;13.80;94.50;;;;;;5017867;28;20033;-42
2022/05/20 12:12:26;;;;;;;7.78;2.58;;;13.80;94.60;;;;;;5012933;28;20026;-41
2022/05/20 12:15:13;;;;;;;5.68;2.08;;;13.90;94.30;;;;;;5011102;28;20026;-48
2022/05/20 12:17:50;;;;;;;5.30;2.42;;;14.00;93.50;;;;;;5032325;28;20030;-48
2022/05/20 12:26:03;;;;;;;7.63;2.47;;;14.20;94.30;;;;;;5011601;28;20069;-47
2022/05/20 12:28:33;;;;;;;6.80;2.42;;;14.30;93.50;;;;;;5025225;28;20029;-54
2022/05/20 12:31:31;;;;;;;6.80;2.58;;;14.40;94.40;;;;;;5010936;28;20064;-54
2022/05/20 12:34:03;;;;;;;7.75;3.17;;;14.50;94.30;;;;;;5020365;28;20048;-54
2022/05/20 12:36:29;;;;;;;7.78;2.65;;;14.70;95.10;;;;;;5029432;28;20029;-39
2022/05/20 12:39:07;;;;;;;6.78;2.45;;;14.90;95.00;;;;;;5013623;28;20394;-49
2022/05/20 12:41:53;;;;;;;7.85;2.60;;;15.00;93.50;;;;;;5010340;28;20021;-46
2022/05/20 12:44:22;;;;;;;8.80;2.60;;;15.10;92.80;;;;;;5013709;28;20038;-38
2022/05/20 12:46:57;;;;;;;5.30;2.67;;;15.00;93.30;;;;;;5010919;28;20060;-42
2022/05/20 12:49:25;;;;;;;6.32;3.40;;;15.10;93.70;;;;;;5011514;28;20040;-46
2022/05/20 12:51:52;;;;;;;7.90;3.28;;;15.40;95.70;;;;;;5009909;28;20463;-42
2022/05/20 12:54:22;;;;;;;6.72;3.22;;;15.90;95.40;;;;;;5017629;28;20035;-50
2022/05/20 12:57:03;;;;;;;7.80;2.95;;;16.50;95.40;;;;;;5013733;28;20509;-45
2022/05/20 12:59:29;;;;;;;7.88;3.00;;;16.70;93.20;;;;;;5021014;28;20047;-45
2022/05/20 13:01:58;;;;;;;8.77;2.45;;;16.60;87.40;;;;;;5023854;28;20029;-42
2022/05/20 13:04:28;;;;;;;6.13;3.35;;;16.30;89.70;;;;;;5029641;28;20041;-45
2022/05/20 13:06:56;;;;;;;8.48;3.65;;;16.50;92.10;;;;;;5032921;28;20738;-55
2022/05/20 13:09:35;;;;;;;7.85;3.72;;;16.90;93.00;;;;;;5029851;28;20045;-45
2022/05/20 13:12:08;;;;;;;5.38;2.78;;;17.30;91.60;;;;;;5029182;28;20026;-48
2022/05/20 13:14:35;;;;;;;5.43;2.10;;;17.70;92.10;;;;;;5021443;28;20170;-50
2022/05/20 13:17:03;;;;;;;4.97;1.95;;;18.00;91.30;;;;;;5023064;28;20075;-42
2022/05/20 13:19:37;;;;;;;5.45;2.28;;;18.20;87.90;;;;;;5022049;28;20030;-49
2022/05/20 13:22:05;;;;;;;5.30;2.10;;;18.20;90.20;;;;;;5027512;28;20029;-45
2022/05/20 13:24:36;;;;;;;6.20;2.10;;;18.00;87.30;;;;;;5026918;28;20073;-39
2022/05/20 13:27:04;;;;;;;8.43;2.00;;;18.20;90.10;;;;;;5022282;28;20393;-54
2022/05/20 13:29:30;;;;;;;4.13;1.63;;;18.20;84.80;;;;;;5015538;28;20026;-48
2022/05/20 13:32:29;;;;;;;5.65;1.77;;;18.10;85.10;;;;;;5024920;28;20025;-38
2022/05/20 13:34:59;;;;;;;3.13;1.50;;;17.90;84.50;;;;;;5027862;28;20028;-53
2022/05/20 13:37:37;;;;;;;5.50;1.80;;;18.00;85.50;;;;;;5012584;28;20448;-50
2022/05/20 13:40:14;;;;;;;4.53;1.60;;;17.90;85.20;;;;;;5022508;28;20022;-57
2022/05/20 13:42:47;;;;;;;3.17;1.52;;;17.90;83.60;;;;;;5020332;28;20037;-51
2022/05/20 13:45:13;;;;;;;2.45;1.20;;;17.80;89.20;;;;;;5023065;28;20065;-43